sensor_id;sensor_type;location;lat;lon;timestamp;P1;durP1;ratioP1;P2;durP2;ratioP2
59766;SDS011;46248;58.364;25.582;2022-09-09T00:01:02;6.50;;;2.40;;
59766;SDS011;46248;58.364;25.582;2022-09-09T00:04:33;5.70;;;2.15;;
59766;SDS011;46248;58.364;25.582;2022-09-09T00:07:58;3.38;;;2.20;;
59766;SDS011;46248;58.364;25.582;2022-09-09T00:11:26;5.60;;;2.40;;
59766;SDS011;46248;58.364;25.582;2022-09-09T00:14:55;2.85;;;2.40;;
59766;SDS011;46248;58.364;25.582;2022-09-09T00:18:24;4.50;;;2.95;;
59766;SDS011;46248;58.364;25.582;2022-09-09T00:21:55;4.40;;;2.85;;
59766;SDS011;46248;58.364;25.582;2022-09-09T00:25:27;3.72;;;2.75;;
59766;SDS011;46248;58.364;25.582;2022-09-09T00:28:55;3.78;;;2.55;;
59766;SDS011;46248;58.364;25.582;2022-09-09T00:32:24;2.40;;;1.90;;
59766;SDS011;46248;58.364;25.582;2022-09-09T00:35:53;2.33;;;1.88;;
59766;SDS011;46248;58.364;25.582;2022-09-09T00:39:21;1.55;;;1.45;;
59766;SDS011;46248;58.364;25.582;2022-09-09T00:42:50;4.30;;;2.10;;
59766;SDS011;46248;58.364;25.582;2022-09-09T00:50:26;4.18;;;1.92;;
59766;SDS011;46248;58.364;25.582;2022-09-09T00:54:03;3.58;;;2.00;;
59766;SDS011;46248;58.364;25.582;2022-09-09T00:57:35;3.78;;;1.80;;
59766;SDS011;46248;58.364;25.582;2022-09-09T01:01:00;3.50;;;2.00;;
59766;SDS011;46248;58.364;25.582;2022-09-09T01:04:31;2.85;;;1.98;;
59766;SDS011;46248;58.364;25.582;2022-09-09T01:07:58;3.03;;;1.98;;
59766;SDS011;46248;58.364;25.582;2022-09-09T01:11:26;2.10;;;1.42;;
59766;SDS011;46248;58.364;25.582;2022-09-09T01:14:57;2.90;;;1.95;;
59766;SDS011;46248;58.364;25.582;2022-09-09T01:18:27;2.05;;;1.58;;
59766;SDS011;46248;58.364;25.582;2022-09-09T01:21:56;2.92;;;1.80;;
59766;SDS011;46248;58.364;25.582;2022-09-09T01:25:28;2.58;;;1.75;;
59766;SDS011;46248;58.364;25.582;2022-09-09T01:28:55;2.92;;;1.92;;
59766;SDS011;46248;58.364;25.582;2022-09-09T01:32:40;3.63;;;1.85;;
59766;SDS011;46248;58.364;25.582;2022-09-09T01:36:05;4.78;;;2.28;;
59766;SDS011;46248;58.364;25.582;2022-09-09T01:39:34;5.38;;;2.00;;
59766;SDS011;46248;58.364;25.582;2022-09-09T01:42:59;3.55;;;2.33;;
59766;SDS011;46248;58.364;25.582;2022-09-09T01:46:25;8.27;;;7.57;;
59766;SDS011;46248;58.364;25.582;2022-09-09T01:49:49;3.67;;;2.40;;
59766;SDS011;46248;58.364;25.582;2022-09-09T01:53:12;2.92;;;2.47;;
59766;SDS011;46248;58.364;25.582;2022-09-09T01:56:40;4.15;;;2.30;;
59766;SDS011;46248;58.364;25.582;2022-09-09T02:00:10;3.75;;;1.95;;
59766;SDS011;46248;58.364;25.582;2022-09-09T02:03:36;2.08;;;1.90;;
59766;SDS011;46248;58.364;25.582;2022-09-09T02:06:59;3.58;;;2.15;;
59766;SDS011;46248;58.364;25.582;2022-09-09T02:10:24;2.20;;;1.98;;
59766;SDS011;46248;58.364;25.582;2022-09-09T02:13:55;3.60;;;2.00;;
59766;SDS011;46248;58.364;25.582;2022-09-09T02:17:24;3.45;;;1.83;;
59766;SDS011;46248;58.364;25.582;2022-09-09T02:20:51;3.85;;;2.05;;
59766;SDS011;46248;58.364;25.582;2022-09-09T02:24:15;4.22;;;1.88;;
59766;SDS011;46248;58.364;25.582;2022-09-09T02:27:39;3.85;;;1.90;;
59766;SDS011;46248;58.364;25.582;2022-09-09T02:31:04;5.38;;;3.40;;
59766;SDS011;46248;58.364;25.582;2022-09-09T02:34:28;3.80;;;3.20;;
59766;SDS011;46248;58.364;25.582;2022-09-09T02:37:57;5.95;;;5.45;;
59766;SDS011;46248;58.364;25.582;2022-09-09T02:41:25;2.42;;;2.22;;
59766;SDS011;46248;58.364;25.582;2022-09-09T02:44:53;3.33;;;2.10;;
59766;SDS011;46248;58.364;25.582;2022-09-09T02:48:18;4.18;;;2.30;;
59766;SDS011;46248;58.364;25.582;2022-09-09T02:51:50;4.13;;;2.00;;
59766;SDS011;46248;58.364;25.582;2022-09-09T02:55:23;3.95;;;2.50;;
59766;SDS011;46248;58.364;25.582;2022-09-09T02:58:53;2.20;;;1.92;;
59766;SDS011;46248;58.364;25.582;2022-09-09T03:02:16;3.05;;;2.35;;
59766;SDS011;46248;58.364;25.582;2022-09-09T03:05:39;2.55;;;2.33;;
59766;SDS011;46248;58.364;25.582;2022-09-09T03:09:03;2.25;;;1.65;;
59766;SDS011;46248;58.364;25.582;2022-09-09T03:12:28;2.30;;;1.73;;
59766;SDS011;46248;58.364;25.582;2022-09-09T03:15:54;3.63;;;2.35;;
59766;SDS011;46248;58.364;25.582;2022-09-09T03:19:17;3.60;;;2.40;;
59766;SDS011;46248;58.364;25.582;2022-09-09T03:22:40;7.82;;;2.40;;
59766;SDS011;46248;58.364;25.582;2022-09-09T03:26:04;3.78;;;2.58;;
59766;SDS011;46248;58.364;25.582;2022-09-09T03:29:29;4.38;;;2.67;;
59766;SDS011;46248;58.364;25.582;2022-09-09T03:32:52;6.13;;;2.60;;
59766;SDS011;46248;58.364;25.582;2022-09-09T03:36:16;6.38;;;2.88;;
59766;SDS011;46248;58.364;25.582;2022-09-09T03:39:39;4.43;;;2.60;;
59766;SDS011;46248;58.364;25.582;2022-09-09T03:43:01;2.92;;;2.50;;
59766;SDS011;46248;58.364;25.582;2022-09-09T03:46:26;6.10;;;2.78;;
59766;SDS011;46248;58.364;25.582;2022-09-09T03:49:48;3.50;;;2.58;;
59766;SDS011;46248;58.364;25.582;2022-09-09T03:53:11;5.10;;;2.90;;
59766;SDS011;46248;58.364;25.582;2022-09-09T03:56:34;4.20;;;3.15;;
59766;SDS011;46248;58.364;25.582;2022-09-09T03:59:58;4.13;;;3.10;;
59766;SDS011;46248;58.364;25.582;2022-09-09T04:03:23;3.58;;;3.17;;
59766;SDS011;46248;58.364;25.582;2022-09-09T04:06:48;4.07;;;3.40;;
59766;SDS011;46248;58.364;25.582;2022-09-09T04:10:11;5.18;;;3.45;;
59766;SDS011;46248;58.364;25.582;2022-09-09T04:13:34;5.55;;;3.20;;
59766;SDS011;46248;58.364;25.582;2022-09-09T04:16:58;7.00;;;3.58;;
59766;SDS011;46248;58.364;25.582;2022-09-09T04:20:22;5.40;;;3.88;;
59766;SDS011;46248;58.364;25.582;2022-09-09T04:23:45;6.82;;;3.83;;
59766;SDS011;46248;58.364;25.582;2022-09-09T04:27:09;5.85;;;3.45;;
59766;SDS011;46248;58.364;25.582;2022-09-09T04:30:32;4.32;;;3.35;;
59766;SDS011;46248;58.364;25.582;2022-09-09T04:33:56;6.07;;;3.03;;
59766;SDS011;46248;58.364;25.582;2022-09-09T04:37:24;6.68;;;3.47;;
59766;SDS011;46248;58.364;25.582;2022-09-09T04:40:47;8.15;;;3.72;;
59766;SDS011;46248;58.364;25.582;2022-09-09T04:44:15;6.50;;;3.95;;
59766;SDS011;46248;58.364;25.582;2022-09-09T04:47:38;7.93;;;4.60;;
59766;SDS011;46248;58.364;25.582;2022-09-09T04:51:02;7.38;;;5.00;;
59766;SDS011;46248;58.364;25.582;2022-09-09T04:54:28;6.57;;;4.25;;
59766;SDS011;46248;58.364;25.582;2022-09-09T04:57:51;4.63;;;3.63;;
59766;SDS011;46248;58.364;25.582;2022-09-09T05:01:14;8.93;;;5.13;;
59766;SDS011;46248;58.364;25.582;2022-09-09T05:04:39;5.68;;;4.10;;
59766;SDS011;46248;58.364;25.582;2022-09-09T05:08:02;7.97;;;3.70;;
59766;SDS011;46248;58.364;25.582;2022-09-09T05:11:27;8.32;;;3.85;;
59766;SDS011;46248;58.364;25.582;2022-09-09T05:14:51;5.43;;;3.30;;
59766;SDS011;46248;58.364;25.582;2022-09-09T05:18:14;4.90;;;3.05;;
59766;SDS011;46248;58.364;25.582;2022-09-09T05:21:37;9.10;;;3.65;;
59766;SDS011;46248;58.364;25.582;2022-09-09T05:25:00;6.55;;;3.30;;
59766;SDS011;46248;58.364;25.582;2022-09-09T05:28:25;5.40;;;3.33;;
59766;SDS011;46248;58.364;25.582;2022-09-09T05:31:48;3.85;;;2.60;;
59766;SDS011;46248;58.364;25.582;2022-09-09T05:35:14;3.30;;;2.45;;
59766;SDS011;46248;58.364;25.582;2022-09-09T05:38:39;3.58;;;2.85;;
59766;SDS011;46248;58.364;25.582;2022-09-09T05:42:03;3.30;;;2.65;;
59766;SDS011;46248;58.364;25.582;2022-09-09T05:45:30;4.05;;;2.42;;
59766;SDS011;46248;58.364;25.582;2022-09-09T05:48:53;4.03;;;2.63;;
59766;SDS011;46248;58.364;25.582;2022-09-09T05:52:16;4.93;;;2.80;;
59766;SDS011;46248;58.364;25.582;2022-09-09T05:55:39;3.28;;;2.25;;
59766;SDS011;46248;58.364;25.582;2022-09-09T05:59:02;2.50;;;2.03;;
59766;SDS011;46248;58.364;25.582;2022-09-09T06:02:27;2.85;;;2.10;;
59766;SDS011;46248;58.364;25.582;2022-09-09T06:05:56;3.58;;;2.10;;
59766;SDS011;46248;58.364;25.582;2022-09-09T06:09:20;6.18;;;2.95;;
59766;SDS011;46248;58.364;25.582;2022-09-09T06:12:43;3.58;;;2.05;;
59766;SDS011;46248;58.364;25.582;2022-09-09T06:16:07;3.53;;;1.77;;
59766;SDS011;46248;58.364;25.582;2022-09-09T06:19:33;3.65;;;1.60;;
59766;SDS011;46248;58.364;25.582;2022-09-09T06:22:57;3.67;;;1.60;;
59766;SDS011;46248;58.364;25.582;2022-09-09T06:26:21;1.30;;;1.10;;
59766;SDS011;46248;58.364;25.582;2022-09-09T06:29:46;3.15;;;1.20;;
59766;SDS011;46248;58.364;25.582;2022-09-09T06:33:09;4.53;;;1.63;;
59766;SDS011;46248;58.364;25.582;2022-09-09T06:36:33;1.35;;;0.90;;
59766;SDS011;46248;58.364;25.582;2022-09-09T06:39:57;1.00;;;0.90;;
59766;SDS011;46248;58.364;25.582;2022-09-09T06:43:20;0.75;;;0.70;;
59766;SDS011;46248;58.364;25.582;2022-09-09T06:46:43;1.75;;;0.90;;
59766;SDS011;46248;58.364;25.582;2022-09-09T06:50:07;2.20;;;0.82;;
59766;SDS011;46248;58.364;25.582;2022-09-09T06:53:33;2.80;;;0.95;;
59766;SDS011;46248;58.364;25.582;2022-09-09T06:57:02;1.13;;;1.02;;
59766;SDS011;46248;58.364;25.582;2022-09-09T07:00:47;2.97;;;0.80;;
59766;SDS011;46248;58.364;25.582;2022-09-09T07:04:10;1.30;;;1.00;;
59766;SDS011;46248;58.364;25.582;2022-09-09T07:07:34;1.45;;;0.73;;
59766;SDS011;46248;58.364;25.582;2022-09-09T07:11:03;0.80;;;0.47;;
59766;SDS011;46248;58.364;25.582;2022-09-09T07:14:31;0.82;;;0.70;;
59766;SDS011;46248;58.364;25.582;2022-09-09T07:17:54;1.38;;;0.68;;
59766;SDS011;46248;58.364;25.582;2022-09-09T07:21:17;0.50;;;0.50;;
59766;SDS011;46248;58.364;25.582;2022-09-09T07:24:41;1.10;;;0.43;;
59766;SDS011;46248;58.364;25.582;2022-09-09T07:28:06;0.75;;;0.52;;
59766;SDS011;46248;58.364;25.582;2022-09-09T07:31:30;0.75;;;0.57;;
59766;SDS011;46248;58.364;25.582;2022-09-09T07:34:54;2.03;;;0.63;;
59766;SDS011;46248;58.364;25.582;2022-09-09T07:38:18;0.82;;;0.50;;
59766;SDS011;46248;58.364;25.582;2022-09-09T07:41:43;0.30;;;0.30;;
59766;SDS011;46248;58.364;25.582;2022-09-09T07:45:10;1.02;;;0.50;;
59766;SDS011;46248;58.364;25.582;2022-09-09T07:48:33;1.17;;;0.50;;
59766;SDS011;46248;58.364;25.582;2022-09-09T07:51:56;1.02;;;0.50;;
59766;SDS011;46248;58.364;25.582;2022-09-09T07:55:19;1.05;;;0.40;;
59766;SDS011;46248;58.364;25.582;2022-09-09T07:58:44;0.50;;;0.47;;
59766;SDS011;46248;58.364;25.582;2022-09-09T08:02:09;0.45;;;0.30;;
59766;SDS011;46248;58.364;25.582;2022-09-09T08:05:32;1.55;;;0.55;;
59766;SDS011;46248;58.364;25.582;2022-09-09T08:08:55;1.75;;;0.30;;
59766;SDS011;46248;58.364;25.582;2022-09-09T08:12:18;2.20;;;0.40;;
59766;SDS011;46248;58.364;25.582;2022-09-09T08:15:40;0.40;;;0.40;;
59766;SDS011;46248;58.364;25.582;2022-09-09T08:19:05;0.63;;;0.45;;
59766;SDS011;46248;58.364;25.582;2022-09-09T08:22:29;1.45;;;0.65;;
59766;SDS011;46248;58.364;25.582;2022-09-09T08:25:51;0.45;;;0.40;;
59766;SDS011;46248;58.364;25.582;2022-09-09T08:29:15;1.20;;;0.40;;
59766;SDS011;46248;58.364;25.582;2022-09-09T08:32:40;1.38;;;0.40;;
59766;SDS011;46248;58.364;25.582;2022-09-09T08:36:09;1.08;;;0.43;;
59766;SDS011;46248;58.364;25.582;2022-09-09T08:39:33;0.45;;;0.40;;
59766;SDS011;46248;58.364;25.582;2022-09-09T08:42:57;1.55;;;0.50;;
59766;SDS011;46248;58.364;25.582;2022-09-09T08:46:24;0.95;;;0.80;;
59766;SDS011;46248;58.364;25.582;2022-09-09T08:49:56;2.90;;;1.77;;
59766;SDS011;46248;58.364;25.582;2022-09-09T08:53:30;0.65;;;0.40;;
59766;SDS011;46248;58.364;25.582;2022-09-09T08:57:00;5.05;;;2.00;;
59766;SDS011;46248;58.364;25.582;2022-09-09T09:00:38;21.67;;;5.88;;
59766;SDS011;46248;58.364;25.582;2022-09-09T09:04:17;6.60;;;2.63;;
59766;SDS011;46248;58.364;25.582;2022-09-09T09:07:57;2.95;;;2.13;;
59766;SDS011;46248;58.364;25.582;2022-09-09T09:11:28;1.75;;;0.77;;
59766;SDS011;46248;58.364;25.582;2022-09-09T09:14:58;0.60;;;0.60;;
59766;SDS011;46248;58.364;25.582;2022-09-09T09:18:22;0.85;;;0.30;;
59766;SDS011;46248;58.364;25.582;2022-09-09T09:21:45;0.50;;;0.30;;
59766;SDS011;46248;58.364;25.582;2022-09-09T09:25:15;1.05;;;0.70;;
59766;SDS011;46248;58.364;25.582;2022-09-09T09:28:41;2.80;;;0.30;;
59766;SDS011;46248;58.364;25.582;2022-09-09T09:32:04;0.85;;;0.35;;
59766;SDS011;46248;58.364;25.582;2022-09-09T09:35:30;0.40;;;0.30;;
59766;SDS011;46248;58.364;25.582;2022-09-09T09:39:00;1.27;;;0.47;;
59766;SDS011;46248;58.364;25.582;2022-09-09T09:42:49;0.47;;;0.25;;
59766;SDS011;46248;58.364;25.582;2022-09-09T09:46:20;1.73;;;0.30;;
59766;SDS011;46248;58.364;25.582;2022-09-09T09:49:53;1.88;;;0.60;;
59766;SDS011;46248;58.364;25.582;2022-09-09T09:53:19;0.50;;;0.30;;
59766;SDS011;46248;58.364;25.582;2022-09-09T09:56:46;2.72;;;0.50;;
59766;SDS011;46248;58.364;25.582;2022-09-09T10:00:12;0.40;;;0.40;;
59766;SDS011;46248;58.364;25.582;2022-09-09T10:03:40;1.65;;;0.47;;
59766;SDS011;46248;58.364;25.582;2022-09-09T10:07:17;0.40;;;0.40;;
59766;SDS011;46248;58.364;25.582;2022-09-09T10:10:53;4.63;;;0.73;;
59766;SDS011;46248;58.364;25.582;2022-09-09T10:14:36;0.85;;;0.63;;
59766;SDS011;46248;58.364;25.582;2022-09-09T10:18:08;1.40;;;0.60;;
59766;SDS011;46248;58.364;25.582;2022-09-09T10:22:01;0.30;;;0.30;;
59766;SDS011;46248;58.364;25.582;2022-09-09T10:25:38;0.57;;;0.50;;
59766;SDS011;46248;58.364;25.582;2022-09-09T10:29:24;3.03;;;0.60;;
59766;SDS011;46248;58.364;25.582;2022-09-09T10:33:01;2.03;;;0.32;;
59766;SDS011;46248;58.364;25.582;2022-09-09T10:36:32;0.50;;;0.50;;
59766;SDS011;46248;58.364;25.582;2022-09-09T10:40:00;0.32;;;0.32;;
59766;SDS011;46248;58.364;25.582;2022-09-09T10:43:39;2.53;;;0.45;;
59766;SDS011;46248;58.364;25.582;2022-09-09T10:47:26;1.38;;;0.50;;
59766;SDS011;46248;58.364;25.582;2022-09-09T10:51:07;0.98;;;0.85;;
59766;SDS011;46248;58.364;25.582;2022-09-09T10:54:45;1.73;;;1.25;;
59766;SDS011;46248;58.364;25.582;2022-09-09T10:58:20;0.95;;;0.68;;
59766;SDS011;46248;58.364;25.582;2022-09-09T11:01:47;2.63;;;0.98;;
59766;SDS011;46248;58.364;25.582;2022-09-09T11:05:15;2.47;;;0.80;;
59766;SDS011;46248;58.364;25.582;2022-09-09T11:08:41;5.50;;;1.48;;
59766;SDS011;46248;58.364;25.582;2022-09-09T11:12:04;1.23;;;0.90;;
59766;SDS011;46248;58.364;25.582;2022-09-09T11:15:35;3.38;;;1.33;;
59766;SDS011;46248;58.364;25.582;2022-09-09T11:19:04;0.95;;;0.60;;
59766;SDS011;46248;58.364;25.582;2022-09-09T11:22:37;0.40;;;0.32;;
59766;SDS011;46248;58.364;25.582;2022-09-09T11:26:05;1.70;;;0.80;;
59766;SDS011;46248;58.364;25.582;2022-09-09T11:34:04;3.63;;;1.35;;
59766;SDS011;46248;58.364;25.582;2022-09-09T11:37:46;1.10;;;0.47;;
59766;SDS011;46248;58.364;25.582;2022-09-09T11:41:32;3.63;;;1.40;;
59766;SDS011;46248;58.364;25.582;2022-09-09T11:44:57;4.25;;;2.20;;
59766;SDS011;46248;58.364;25.582;2022-09-09T11:48:34;2.20;;;1.10;;
59766;SDS011;46248;58.364;25.582;2022-09-09T11:52:00;1.75;;;0.73;;
59766;SDS011;46248;58.364;25.582;2022-09-09T11:55:35;1.83;;;0.80;;
59766;SDS011;46248;58.364;25.582;2022-09-09T11:58:59;0.82;;;0.50;;
59766;SDS011;46248;58.364;25.582;2022-09-09T12:05:52;3.10;;;0.47;;
59766;SDS011;46248;58.364;25.582;2022-09-09T12:09:20;1.88;;;0.75;;
59766;SDS011;46248;58.364;25.582;2022-09-09T12:12:47;1.02;;;0.30;;
59766;SDS011;46248;58.364;25.582;2022-09-09T12:20:00;0.45;;;0.43;;
59766;SDS011;46248;58.364;25.582;2022-09-09T12:23:37;2.10;;;0.50;;
59766;SDS011;46248;58.364;25.582;2022-09-09T12:27:07;1.23;;;0.43;;
59766;SDS011;46248;58.364;25.582;2022-09-09T12:30:41;1.00;;;0.40;;
59766;SDS011;46248;58.364;25.582;2022-09-09T12:34:14;1.30;;;0.50;;
59766;SDS011;46248;58.364;25.582;2022-09-09T12:37:40;1.90;;;0.80;;
59766;SDS011;46248;58.364;25.582;2022-09-09T12:41:16;0.52;;;0.50;;
59766;SDS011;46248;58.364;25.582;2022-09-09T12:44:51;1.88;;;0.40;;
59766;SDS011;46248;58.364;25.582;2022-09-09T12:48:15;0.70;;;0.50;;
59766;SDS011;46248;58.364;25.582;2022-09-09T12:51:42;1.65;;;0.35;;
59766;SDS011;46248;58.364;25.582;2022-09-09T12:55:15;0.80;;;0.57;;
59766;SDS011;46248;58.364;25.582;2022-09-09T12:58:46;1.25;;;0.20;;
59766;SDS011;46248;58.364;25.582;2022-09-09T13:02:18;1.50;;;0.60;;
59766;SDS011;46248;58.364;25.582;2022-09-09T13:05:50;1.30;;;0.35;;
59766;SDS011;46248;58.364;25.582;2022-09-09T13:09:14;2.53;;;0.57;;
59766;SDS011;46248;58.364;25.582;2022-09-09T13:12:37;1.33;;;0.50;;
59766;SDS011;46248;58.364;25.582;2022-09-09T13:16:03;0.50;;;0.40;;
59766;SDS011;46248;58.364;25.582;2022-09-09T13:19:32;4.10;;;0.75;;
59766;SDS011;46248;58.364;25.582;2022-09-09T13:22:57;1.98;;;0.60;;
59766;SDS011;46248;58.364;25.582;2022-09-09T13:26:21;1.05;;;0.50;;
59766;SDS011;46248;58.364;25.582;2022-09-09T13:29:50;1.33;;;0.52;;
59766;SDS011;46248;58.364;25.582;2022-09-09T13:33:20;3.25;;;0.80;;
59766;SDS011;46248;58.364;25.582;2022-09-09T13:36:46;3.75;;;0.52;;
59766;SDS011;46248;58.364;25.582;2022-09-09T13:40:12;0.98;;;0.50;;
59766;SDS011;46248;58.364;25.582;2022-09-09T13:43:43;0.85;;;0.77;;
59766;SDS011;46248;58.364;25.582;2022-09-09T13:47:17;1.05;;;0.35;;
59766;SDS011;46248;58.364;25.582;2022-09-09T13:50:41;0.50;;;0.50;;
59766;SDS011;46248;58.364;25.582;2022-09-09T13:54:06;1.92;;;0.60;;
59766;SDS011;46248;58.364;25.582;2022-09-09T13:57:31;1.33;;;0.50;;
59766;SDS011;46248;58.364;25.582;2022-09-09T14:00:54;1.20;;;0.60;;
59766;SDS011;46248;58.364;25.582;2022-09-09T14:04:21;1.05;;;0.50;;
59766;SDS011;46248;58.364;25.582;2022-09-09T14:07:44;1.52;;;0.80;;
59766;SDS011;46248;58.364;25.582;2022-09-09T14:11:13;2.05;;;1.15;;
59766;SDS011;46248;58.364;25.582;2022-09-09T14:14:37;1.17;;;0.43;;
59766;SDS011;46248;58.364;25.582;2022-09-09T14:18:00;2.78;;;0.70;;
59766;SDS011;46248;58.364;25.582;2022-09-09T14:21:23;2.20;;;0.65;;
59766;SDS011;46248;58.364;25.582;2022-09-09T14:24:46;0.57;;;0.50;;
59766;SDS011;46248;58.364;25.582;2022-09-09T14:28:12;1.17;;;0.85;;
59766;SDS011;46248;58.364;25.582;2022-09-09T14:31:35;0.85;;;0.52;;
59766;SDS011;46248;58.364;25.582;2022-09-09T14:34:59;0.40;;;0.40;;
59766;SDS011;46248;58.364;25.582;2022-09-09T14:38:22;0.32;;;0.30;;
59766;SDS011;46248;58.364;25.582;2022-09-09T14:41:45;0.68;;;0.40;;
59766;SDS011;46248;58.364;25.582;2022-09-09T14:45:10;2.15;;;1.20;;
59766;SDS011;46248;58.364;25.582;2022-09-09T14:48:34;0.77;;;0.40;;
59766;SDS011;46248;58.364;25.582;2022-09-09T14:51:58;0.43;;;0.40;;
59766;SDS011;46248;58.364;25.582;2022-09-09T14:55:22;1.35;;;0.50;;
59766;SDS011;46248;58.364;25.582;2022-09-09T14:58:44;1.33;;;0.50;;
59766;SDS011;46248;58.364;25.582;2022-09-09T15:02:09;1.20;;;0.60;;
59766;SDS011;46248;58.364;25.582;2022-09-09T15:05:36;0.70;;;0.70;;
59766;SDS011;46248;58.364;25.582;2022-09-09T15:08:59;0.75;;;0.70;;
59766;SDS011;46248;58.364;25.582;2022-09-09T15:12:22;0.98;;;0.68;;
59766;SDS011;46248;58.364;25.582;2022-09-09T15:15:46;2.50;;;1.00;;
59766;SDS011;46248;58.364;25.582;2022-09-09T15:19:12;2.47;;;0.60;;
59766;SDS011;46248;58.364;25.582;2022-09-09T15:22:35;0.43;;;0.40;;
59766;SDS011;46248;58.364;25.582;2022-09-09T15:25:58;0.55;;;0.55;;
59766;SDS011;46248;58.364;25.582;2022-09-09T15:29:22;1.38;;;0.93;;
59766;SDS011;46248;58.364;25.582;2022-09-09T15:32:45;2.35;;;0.95;;
59766;SDS011;46248;58.364;25.582;2022-09-09T15:36:19;2.72;;;0.70;;
59766;SDS011;46248;58.364;25.582;2022-09-09T15:39:43;2.50;;;0.85;;
59766;SDS011;46248;58.364;25.582;2022-09-09T15:43:06;3.50;;;0.80;;
59766;SDS011;46248;58.364;25.582;2022-09-09T15:46:31;2.53;;;0.55;;
59766;SDS011;46248;58.364;25.582;2022-09-09T15:49:58;3.90;;;0.70;;
59766;SDS011;46248;58.364;25.582;2022-09-09T15:53:23;4.68;;;1.05;;
59766;SDS011;46248;58.364;25.582;2022-09-09T15:56:49;1.02;;;0.52;;
59766;SDS011;46248;58.364;25.582;2022-09-09T16:00:14;1.63;;;0.50;;
59766;SDS011;46248;58.364;25.582;2022-09-09T16:03:38;1.25;;;0.63;;
59766;SDS011;46248;58.364;25.582;2022-09-09T16:07:05;0.68;;;0.50;;
59766;SDS011;46248;58.364;25.582;2022-09-09T16:10:29;1.23;;;0.60;;
59766;SDS011;46248;58.364;25.582;2022-09-09T16:13:53;0.60;;;0.60;;
59766;SDS011;46248;58.364;25.582;2022-09-09T16:17:17;0.50;;;0.50;;
59766;SDS011;46248;58.364;25.582;2022-09-09T16:20:41;0.80;;;0.70;;
59766;SDS011;46248;58.364;25.582;2022-09-09T16:24:04;1.13;;;0.50;;
59766;SDS011;46248;58.364;25.582;2022-09-09T16:27:32;1.35;;;0.73;;
59766;SDS011;46248;58.364;25.582;2022-09-09T16:30:55;1.10;;;0.43;;
59766;SDS011;46248;58.364;25.582;2022-09-09T16:34:20;1.20;;;0.57;;
59766;SDS011;46248;58.364;25.582;2022-09-09T16:37:43;2.58;;;0.70;;
59766;SDS011;46248;58.364;25.582;2022-09-09T16:41:07;1.83;;;0.60;;
59766;SDS011;46248;58.364;25.582;2022-09-09T16:44:32;4.07;;;0.75;;
59766;SDS011;46248;58.364;25.582;2022-09-09T16:47:56;1.92;;;0.80;;
59766;SDS011;46248;58.364;25.582;2022-09-09T16:51:20;1.08;;;0.60;;
59766;SDS011;46248;58.364;25.582;2022-09-09T16:54:44;1.63;;;0.70;;
59766;SDS011;46248;58.364;25.582;2022-09-09T16:58:10;2.67;;;0.50;;
59766;SDS011;46248;58.364;25.582;2022-09-09T17:01:36;0.88;;;0.47;;
59766;SDS011;46248;58.364;25.582;2022-09-09T17:05:01;1.33;;;0.70;;
59766;SDS011;46248;58.364;25.582;2022-09-09T17:08:25;3.60;;;0.65;;
59766;SDS011;46248;58.364;25.582;2022-09-09T17:11:48;4.90;;;2.15;;
59766;SDS011;46248;58.364;25.582;2022-09-09T17:15:12;2.33;;;0.77;;
59766;SDS011;46248;58.364;25.582;2022-09-09T17:18:40;0.85;;;0.85;;
59766;SDS011;46248;58.364;25.582;2022-09-09T17:22:03;2.13;;;1.17;;
59766;SDS011;46248;58.364;25.582;2022-09-09T17:25:36;1.52;;;1.00;;
59766;SDS011;46248;58.364;25.582;2022-09-09T17:29:12;0.90;;;0.80;;
59766;SDS011;46248;58.364;25.582;2022-09-09T17:32:35;3.15;;;1.10;;
59766;SDS011;46248;58.364;25.582;2022-09-09T17:36:01;3.10;;;0.77;;
59766;SDS011;46248;58.364;25.582;2022-09-09T17:39:29;1.60;;;1.02;;
59766;SDS011;46248;58.364;25.582;2022-09-09T17:42:52;3.72;;;1.45;;
59766;SDS011;46248;58.364;25.582;2022-09-09T17:46:16;1.33;;;1.20;;
59766;SDS011;46248;58.364;25.582;2022-09-09T17:49:42;1.05;;;0.80;;
59766;SDS011;46248;58.364;25.582;2022-09-09T17:53:07;0.70;;;0.70;;
59766;SDS011;46248;58.364;25.582;2022-09-09T17:56:30;1.08;;;0.60;;
59766;SDS011;46248;58.364;25.582;2022-09-09T17:59:55;1.40;;;0.57;;
59766;SDS011;46248;58.364;25.582;2022-09-09T18:03:18;1.40;;;0.60;;
59766;SDS011;46248;58.364;25.582;2022-09-09T18:06:42;2.33;;;0.75;;
59766;SDS011;46248;58.364;25.582;2022-09-09T18:10:08;1.40;;;1.30;;
59766;SDS011;46248;58.364;25.582;2022-09-09T18:13:32;1.45;;;1.15;;
59766;SDS011;46248;58.364;25.582;2022-09-09T18:16:56;1.73;;;0.80;;
59766;SDS011;46248;58.364;25.582;2022-09-09T18:20:21;1.63;;;0.82;;
59766;SDS011;46248;58.364;25.582;2022-09-09T18:23:45;2.35;;;1.25;;
59766;SDS011;46248;58.364;25.582;2022-09-09T18:27:14;3.40;;;1.40;;
59766;SDS011;46248;58.364;25.582;2022-09-09T18:30:38;1.20;;;0.90;;
59766;SDS011;46248;58.364;25.582;2022-09-09T18:34:03;1.73;;;1.40;;
59766;SDS011;46248;58.364;25.582;2022-09-09T18:37:27;2.75;;;1.92;;
59766;SDS011;46248;58.364;25.582;2022-09-09T18:40:53;3.03;;;1.13;;
59766;SDS011;46248;58.364;25.582;2022-09-09T18:44:18;2.58;;;1.40;;
59766;SDS011;46248;58.364;25.582;2022-09-09T18:47:46;1.63;;;1.37;;
59766;SDS011;46248;58.364;25.582;2022-09-09T18:51:09;3.17;;;1.67;;
59766;SDS011;46248;58.364;25.582;2022-09-09T18:54:32;2.03;;;1.10;;
59766;SDS011;46248;58.364;25.582;2022-09-09T18:57:55;4.03;;;1.20;;
59766;SDS011;46248;58.364;25.582;2022-09-09T19:01:20;2.50;;;2.05;;
59766;SDS011;46248;58.364;25.582;2022-09-09T19:04:43;6.07;;;1.55;;
59766;SDS011;46248;58.364;25.582;2022-09-09T19:08:06;3.75;;;1.90;;
59766;SDS011;46248;58.364;25.582;2022-09-09T19:11:29;2.03;;;1.83;;
59766;SDS011;46248;58.364;25.582;2022-09-09T19:14:52;3.22;;;1.42;;
59766;SDS011;46248;58.364;25.582;2022-09-09T19:18:18;3.10;;;1.73;;
59766;SDS011;46248;58.364;25.582;2022-09-09T19:21:41;1.35;;;1.25;;
59766;SDS011;46248;58.364;25.582;2022-09-09T19:25:05;2.13;;;1.50;;
59766;SDS011;46248;58.364;25.582;2022-09-09T19:28:28;1.33;;;1.20;;
59766;SDS011;46248;58.364;25.582;2022-09-09T19:31:52;3.17;;;1.85;;
59766;SDS011;46248;58.364;25.582;2022-09-09T19:35:39;3.22;;;1.60;;
59766;SDS011;46248;58.364;25.582;2022-09-09T19:39:02;4.18;;;1.90;;
59766;SDS011;46248;58.364;25.582;2022-09-09T19:42:26;1.83;;;1.40;;
59766;SDS011;46248;58.364;25.582;2022-09-09T19:45:57;2.00;;;1.30;;
59766;SDS011;46248;58.364;25.582;2022-09-09T19:49:22;2.55;;;1.48;;
59766;SDS011;46248;58.364;25.582;2022-09-09T19:52:46;3.55;;;1.80;;
59766;SDS011;46248;58.364;25.582;2022-09-09T19:56:09;4.25;;;1.63;;
59766;SDS011;46248;58.364;25.582;2022-09-09T19:59:35;2.55;;;2.00;;
59766;SDS011;46248;58.364;25.582;2022-09-09T20:02:58;5.70;;;2.45;;
59766;SDS011;46248;58.364;25.582;2022-09-09T20:06:39;6.97;;;3.95;;
59766;SDS011;46248;58.364;25.582;2022-09-09T20:10:07;4.47;;;2.70;;
59766;SDS011;46248;58.364;25.582;2022-09-09T20:13:30;2.95;;;1.58;;
59766;SDS011;46248;58.364;25.582;2022-09-09T20:16:54;2.15;;;1.30;;
59766;SDS011;46248;58.364;25.582;2022-09-09T20:20:17;2.08;;;1.35;;
59766;SDS011;46248;58.364;25.582;2022-09-09T20:23:40;1.73;;;1.50;;
59766;SDS011;46248;58.364;25.582;2022-09-09T20:27:05;1.77;;;1.45;;
59766;SDS011;46248;58.364;25.582;2022-09-09T20:30:28;2.30;;;1.63;;
59766;SDS011;46248;58.364;25.582;2022-09-09T20:33:57;2.10;;;1.80;;
59766;SDS011;46248;58.364;25.582;2022-09-09T20:37:23;2.80;;;2.00;;
59766;SDS011;46248;58.364;25.582;2022-09-09T20:40:45;2.55;;;1.70;;